Time;durP1;ratioP1;P1;durP2;ratioP2;P2;SDS_P1;SDS_P2;PMS_P1;PMS_P2;Temp;Humidity;BMP_temperature;BMP_pressure;BME280_temperature;BME280_humidity;BME280_pressure;Samples;Min_cycle;Max_cycle;Signal;HPM_P1;HPM_P2
2021/05/20 00:01:49;;;;;;;7.40;5.78;;;11.20;86.50;;;;;;5052832;28;20029;-79
2021/05/20 00:04:14;;;;;;;6.90;6.13;;;11.20;86.60;;;;;;5064457;28;20466;-79
2021/05/20 00:06:40;;;;;;;6.35;5.75;;;11.10;86.40;;;;;;5053657;28;20112;-79
2021/05/20 00:09:07;;;;;;;6.55;5.57;;;11.20;86.60;;;;;;5055882;28;20432;-79
2021/05/20 00:11:33;;;;;;;8.18;6.38;;;11.20;86.60;;;;;;5055799;28;20405;-79
2021/05/20 00:13:59;;;;;;;9.38;6.13;;;11.10;86.60;;;;;;5079193;28;20632;-78
2021/05/20 00:16:25;;;;;;;8.55;7.20;;;11.10;86.60;;;;;;5093141;28;20036;-79
2021/05/20 00:18:50;;;;;;;7.97;7.00;;;11.10;86.60;;;;;;5093697;28;20024;-79
2021/05/20 00:21:16;;;;;;;7.10;6.00;;;11.10;86.70;;;;;;5088538;28;20041;-80
2021/05/20 00:23:42;;;;;;;8.55;7.25;;;11.10;86.70;;;;;;5084533;28;20032;-79
2021/05/20 00:26:12;;;;;;;11.07;7.30;;;11.10;86.60;;;;;;5093638;28;20024;-79
2021/05/20 00:28:38;;;;;;;11.38;8.07;;;11.10;86.50;;;;;;5086866;28;20104;-79
2021/05/20 00:31:04;;;;;;;9.68;8.68;;;11.10;86.50;;;;;;5073596;28;20392;-79
2021/05/20 00:33:29;;;;;;;13.48;8.65;;;11.10;86.50;;;;;;5070745;28;20027;-79
2021/05/20 00:35:55;;;;;;;14.10;9.50;;;11.00;86.60;;;;;;5093612;28;20544;-79
2021/05/20 00:38:20;;;;;;;12.95;10.20;;;11.00;86.60;;;;;;5078615;28;20034;-79
2021/05/20 00:40:46;;;;;;;13.27;11.27;;;11.10;86.80;;;;;;5090347;28;20430;-79
2021/05/20 00:43:12;;;;;;;16.15;11.75;;;11.00;86.80;;;;;;5047576;28;20114;-79
2021/05/20 00:45:37;;;;;;;14.73;12.40;;;11.00;86.80;;;;;;5091017;28;20020;-79
2021/05/20 00:48:03;;;;;;;16.20;12.48;;;11.00;86.90;;;;;;5058339;28;20028;-79
2021/05/20 00:50:29;;;;;;;14.55;11.85;;;11.00;86.80;;;;;;5081062;28;20043;-79
2021/05/20 00:52:54;;;;;;;16.77;13.55;;;11.00;86.90;;;;;;5058997;28;20373;-79
2021/05/20 00:55:20;;;;;;;15.55;12.63;;;11.00;86.90;;;;;;5070167;28;20043;-79
2021/05/20 00:57:48;;;;;;;18.42;13.77;;;11.00;86.90;;;;;;5092584;28;20468;-79
2021/05/20 01:00:16;;;;;;;17.50;13.32;;;10.90;86.80;;;;;;5067674;28;20066;-79
2021/05/20 01:02:42;;;;;;;15.32;13.40;;;10.90;86.80;;;;;;5093117;28;20027;-79
2021/05/20 01:05:11;;;;;;;19.45;14.10;;;10.90;86.80;;;;;;5075734;28;20025;-79
2021/05/20 01:07:37;;;;;;;17.40;13.93;;;10.90;86.90;;;;;;5078445;28;20041;-79
2021/05/20 01:10:04;;;;;;;17.05;14.23;;;10.90;86.90;;;;;;5093298;28;20035;-79
2021/05/20 01:12:30;;;;;;;17.40;13.35;;;10.90;87.00;;;;;;5078630;28;20392;-79
2021/05/20 01:14:56;;;;;;;23.08;14.82;;;10.90;87.00;;;;;;5058354;28;20028;-79
2021/05/20 01:17:21;;;;;;;18.98;15.00;;;10.90;87.00;;;;;;5083088;28;20036;-79
2021/05/20 01:19:47;;;;;;;19.05;16.33;;;10.80;87.00;;;;;;5078390;28;20622;-79
2021/05/20 01:22:16;;;;;;;19.02;15.70;;;10.80;87.00;;;;;;5055090;28;20142;-79
2021/05/20 01:24:43;;;;;;;18.15;15.32;;;10.80;87.10;;;;;;5073304;28;20474;-79
2021/05/20 01:27:10;;;;;;;23.27;16.60;;;10.80;87.20;;;;;;5077370;28;20082;-79
2021/05/20 01:29:38;;;;;;;22.08;15.70;;;10.70;87.70;;;;;;5094598;28;20431;-79
2021/05/20 01:32:05;;;;;;;19.63;15.00;;;10.70;87.30;;;;;;5091917;28;20059;-79
2021/05/20 01:34:32;;;;;;;18.20;14.82;;;10.70;87.30;;;;;;5095665;28;20115;-79
2021/05/20 01:37:09;;;;;;;20.27;15.98;;;10.70;87.20;;;;;;5074203;28;20470;-79
2021/05/20 01:39:35;;;;;;;21.23;16.67;;;10.70;87.20;;;;;;5096804;28;20036;-79
2021/05/20 01:42:02;;;;;;;19.95;16.00;;;10.70;87.20;;;;;;5078880;28;20499;-79
2021/05/20 01:44:27;;;;;;;25.33;17.38;;;10.70;87.20;;;;;;5075137;28;20108;-79
2021/05/20 01:46:53;;;;;;;27.73;17.10;;;10.70;87.20;;;;;;5051381;28;20533;-79
2021/05/20 01:49:19;;;;;;;21.67;16.70;;;10.60;87.20;;;;;;5090168;28;20078;-79
2021/05/20 01:51:44;;;;;;;23.98;16.42;;;10.60;87.20;;;;;;5092596;28;20059;-79
2021/05/20 01:54:10;;;;;;;21.13;16.58;;;10.60;87.10;;;;;;5074674;28;20112;-79
2021/05/20 01:56:36;;;;;;;22.73;17.58;;;10.60;87.20;;;;;;5092516;28;20032;-79
2021/05/20 01:59:06;;;;;;;19.05;16.55;;;10.50;87.20;;;;;;5074582;28;20491;-79
2021/05/20 02:01:33;;;;;;;22.58;17.52;;;10.50;87.30;;;;;;5074585;28;20055;-79
2021/05/20 02:03:59;;;;;;;25.83;18.98;;;10.50;87.30;;;;;;5068298;28;20058;-79
2021/05/20 02:06:24;;;;;;;25.08;19.27;;;10.50;87.30;;;;;;5092589;28;20035;-79
2021/05/20 02:08:50;;;;;;;26.02;19.25;;;10.50;87.30;;;;;;5083635;28;20036;-78
2021/05/20 02:11:16;;;;;;;26.67;19.65;;;10.40;87.30;;;;;;5092603;28;20409;-79
2021/05/20 02:13:41;;;;;;;28.55;19.73;;;10.40;87.40;;;;;;5070728;28;20028;-79
2021/05/20 02:16:07;;;;;;;24.63;18.30;;;10.40;87.50;;;;;;5092362;28;20040;-79
2021/05/20 02:18:34;;;;;;;23.40;19.23;;;10.30;87.50;;;;;;5088738;28;20020;-79
2021/05/20 02:20:59;;;;;;;23.73;18.58;;;10.30;87.50;;;;;;5080127;28;20032;-79
2021/05/20 02:23:25;;;;;;;29.02;20.85;;;10.30;87.60;;;;;;5061794;28;20043;-78
2021/05/20 02:25:51;;;;;;;24.83;19.48;;;10.20;87.60;;;;;;5085938;28;20028;-79
2021/05/20 02:28:16;;;;;;;27.27;20.48;;;10.20;87.70;;;;;;5081229;28;20031;-79
2021/05/20 02:30:42;;;;;;;25.92;19.67;;;10.20;87.60;;;;;;5070272;28;20060;-79
2021/05/20 02:33:08;;;;;;;30.08;19.95;;;10.20;87.50;;;;;;5081179;28;20111;-78
2021/05/20 02:35:33;;;;;;;21.50;17.25;;;10.10;87.40;;;;;;5066887;28;20541;-79
2021/05/20 02:37:59;;;;;;;35.80;22.63;;;10.10;87.30;;;;;;5067408;28;20028;-79
2021/05/20 02:40:25;;;;;;;27.05;19.50;;;10.10;87.30;;;;;;5043856;28;20098;-79
2021/05/20 02:42:51;;;;;;;28.25;19.83;;;10.10;87.50;;;;;;5081158;28;20012;-78
2021/05/20 02:45:19;;;;;;;33.25;21.65;;;10.00;87.50;;;;;;5092177;28;20043;-79
2021/05/20 02:47:50;;;;;;;27.38;21.17;;;10.00;87.60;;;;;;5077113;28;20016;-79
2021/05/20 02:50:16;;;;;;;28.55;20.52;;;10.00;87.70;;;;;;5081772;28;20496;-79
2021/05/20 02:52:44;;;;;;;36.85;23.40;;;10.00;87.80;;;;;;5094810;28;20058;-79
2021/05/20 02:55:17;;;;;;;29.17;21.85;;;10.00;88.00;;;;;;5077398;28;20047;-79
2021/05/20 02:58:03;;;;;;;40.92;24.52;;;10.00;88.30;;;;;;5077281;28;20088;-79
2021/05/20 03:00:33;;;;;;;99.53;27.95;;;10.00;88.50;;;;;;5095157;28;20032;-79
2021/05/20 03:02:59;;;;;;;36.47;24.05;;;10.00;88.70;;;;;;5095566;28;20044;-78
2021/05/20 03:05:25;;;;;;;53.05;29.40;;;10.00;88.90;;;;;;5077110;28;20469;-79
2021/05/20 03:07:54;;;;;;;115.00;34.15;;;10.00;89.00;;;;;;5076003;28;20453;-79
2021/05/20 03:10:19;;;;;;;168.55;37.33;;;10.10;89.20;;;;;;5093886;28;20074;-78
2021/05/20 03:12:45;;;;;;;70.30;29.38;;;10.00;89.20;;;;;;5084920;28;20040;-78
2021/05/20 03:15:11;;;;;;;83.85;30.13;;;10.00;89.40;;;;;;5059657;28;20032;-78
2021/05/20 03:17:37;;;;;;;66.50;31.98;;;10.00;89.50;;;;;;5056963;28;20032;-79
2021/05/20 03:20:04;;;;;;;58.55;27.83;;;10.10;89.50;;;;;;5080326;28;20495;-79
2021/05/20 03:22:29;;;;;;;64.28;32.28;;;10.10;89.40;;;;;;5088917;28;20024;-79
2021/05/20 03:24:55;;;;;;;108.80;30.25;;;10.10;89.40;;;;;;5072817;28;20043;-79
2021/05/20 03:27:21;;;;;;;128.55;33.65;;;10.10;89.30;;;;;;5087675;28;20036;-79
2021/05/20 03:29:46;;;;;;;179.77;34.50;;;10.10;89.40;;;;;;5076857;28;20397;-78
2021/05/20 03:32:12;;;;;;;75.25;34.38;;;10.10;90.00;;;;;;5094371;28;20103;-78
2021/05/20 03:34:38;;;;;;;242.13;38.05;;;10.10;89.60;;;;;;5094423;28;20060;-78
2021/05/20 03:37:03;;;;;;;199.63;36.08;;;10.10;89.70;;;;;;5065040;28;20078;-79
2021/05/20 03:39:33;;;;;;;138.55;32.85;;;10.10;89.80;;;;;;5075327;28;20118;-78
2021/05/20 03:41:59;;;;;;;151.30;34.20;;;10.10;89.90;;;;;;5076163;28;20046;-78
2021/05/20 03:44:26;;;;;;;233.95;39.15;;;10.10;90.00;;;;;;5094538;28;20024;-79
2021/05/20 03:46:51;;;;;;;87.25;32.13;;;10.10;90.10;;;;;;5095041;28;20034;-79
2021/05/20 03:49:17;;;;;;;55.03;31.92;;;10.10;90.10;;;;;;5099776;28;20430;-78
2021/05/20 03:51:43;;;;;;;93.40;34.38;;;10.10;90.10;;;;;;5077962;28;20024;-79
2021/05/20 03:54:09;;;;;;;69.65;35.33;;;10.10;90.10;;;;;;5076054;28;20086;-79
2021/05/20 03:56:34;;;;;;;83.85;35.42;;;10.20;90.10;;;;;;5082794;28;20031;-79
2021/05/20 03:59:00;;;;;;;105.15;34.13;;;10.20;90.10;;;;;;5075852;28;20030;-78
2021/05/20 04:01:26;;;;;;;67.03;33.08;;;10.20;90.10;;;;;;5088060;28;20036;-79
2021/05/20 04:03:51;;;;;;;91.95;32.38;;;10.20;90.10;;;;;;5061389;28;20474;-78
2021/05/20 04:06:17;;;;;;;80.28;36.35;;;10.30;90.00;;;;;;5081383;28;20032;-79
2021/05/20 04:08:43;;;;;;;71.60;34.75;;;10.30;90.00;;;;;;5075026;28;20058;-78
2021/05/20 04:11:08;;;;;;;149.60;38.05;;;10.20;90.10;;;;;;5076004;28;20039;-78
2021/05/20 04:13:36;;;;;;;259.42;42.70;;;10.20;90.10;;;;;;5080789;28;20476;-78
2021/05/20 04:16:04;;;;;;;69.05;34.20;;;10.30;90.20;;;;;;5072049;28;20428;-78
2021/05/20 04:18:30;;;;;;;85.03;35.58;;;10.20;90.20;;;;;;5105357;28;20035;-79
2021/05/20 04:20:56;;;;;;;88.72;35.75;;;10.20;90.50;;;;;;5093846;28;20024;-78
2021/05/20 04:23:23;;;;;;;175.80;37.60;;;10.20;90.50;;;;;;5093517;28;20028;-78
2021/05/20 04:25:49;;;;;;;117.68;36.05;;;10.30;90.20;;;;;;5077599;28;20366;-78
2021/05/20 04:28:16;;;;;;;82.65;35.22;;;10.30;90.20;;;;;;5075891;28;20016;-78
2021/05/20 04:30:42;;;;;;;128.25;38.53;;;10.30;90.20;;;;;;5062276;28;20032;-79
2021/05/20 04:33:08;;;;;;;97.13;40.25;;;10.30;90.20;;;;;;5067615;28;20024;-78
2021/05/20 04:35:34;;;;;;;97.00;37.88;;;10.30;90.20;;;;;;5060378;28;20405;-78
2021/05/20 04:38:02;;;;;;;183.35;39.90;;;10.30;90.30;;;;;;5077364;28;20018;-78
2021/05/20 04:40:28;;;;;;;184.60;41.70;;;10.40;90.30;;;;;;5089307;28;20472;-79
2021/05/20 04:42:54;;;;;;;126.15;40.05;;;10.40;90.20;;;;;;5084309;28;20033;-78
2021/05/20 04:45:20;;;;;;;121.75;41.90;;;10.40;90.30;;;;;;5081412;28;20036;-79
2021/05/20 04:47:47;;;;;;;97.60;40.15;;;10.50;90.30;;;;;;5071165;28;20020;-78
2021/05/20 04:50:14;;;;;;;142.85;42.25;;;10.50;90.40;;;;;;5055223;28;20032;-78
2021/05/20 04:52:40;;;;;;;107.60;41.67;;;10.50;90.30;;;;;;5094544;28;20476;-78
2021/05/20 04:55:07;;;;;;;80.60;38.10;;;10.60;90.40;;;;;;5046988;28;20068;-79
2021/05/20 04:57:33;;;;;;;95.55;41.63;;;10.60;90.30;;;;;;5073058;28;20138;-79
2021/05/20 04:59:59;;;;;;;123.30;42.60;;;10.60;90.30;;;;;;5055053;28;20057;-79
2021/05/20 05:02:25;;;;;;;100.78;40.40;;;10.70;90.30;;;;;;5057934;28;20476;-78
2021/05/20 05:04:51;;;;;;;127.78;43.70;;;10.70;90.30;;;;;;5084867;28;20032;-78
2021/05/20 05:07:17;;;;;;;97.40;43.17;;;10.80;90.30;;;;;;5071131;28;20025;-78
2021/05/20 05:09:43;;;;;;;128.27;41.63;;;10.80;90.30;;;;;;5072799;28;20504;-79
2021/05/20 05:12:09;;;;;;;108.10;40.55;;;10.80;90.20;;;;;;5061227;28;20036;-78
2021/05/20 05:14:34;;;;;;;136.30;40.55;;;10.80;90.20;;;;;;5069599;28;20032;-78
2021/05/20 05:17:00;;;;;;;78.00;38.42;;;10.80;90.10;;;;;;5092885;28;20095;-79
2021/05/20 05:19:26;;;;;;;200.45;45.72;;;10.80;90.10;;;;;;5092735;28;20032;-79
2021/05/20 05:21:51;;;;;;;107.22;46.70;;;10.80;90.00;;;;;;5067758;28;20032;-79
2021/05/20 05:24:17;;;;;;;89.93;44.97;;;10.80;90.00;;;;;;5061504;28;20036;-79
2021/05/20 05:26:43;;;;;;;96.20;45.75;;;10.80;90.10;;;;;;5085828;28;20066;-79
2021/05/20 05:29:09;;;;;;;130.43;48.80;;;10.80;90.20;;;;;;5064714;28;20056;-79
2021/05/20 05:31:36;;;;;;;168.75;50.90;;;10.90;90.30;;;;;;5082478;28;20485;-79
2021/05/20 05:34:03;;;;;;;100.72;45.83;;;10.90;90.20;;;;;;5063126;28;20025;-79
2021/05/20 05:36:29;;;;;;;106.90;43.92;;;10.90;90.20;;;;;;5076516;28;20035;-79
2021/05/20 05:38:54;;;;;;;126.32;43.55;;;11.00;90.20;;;;;;5058125;28;20039;-80
2021/05/20 05:41:20;;;;;;;86.53;44.22;;;10.90;90.20;;;;;;5058148;28;20376;-79
2021/05/20 05:43:46;;;;;;;101.85;43.92;;;11.00;90.10;;;;;;5092749;28;20038;-80
2021/05/20 05:46:12;;;;;;;98.60;43.92;;;11.00;90.10;;;;;;5074663;28;20473;-79
2021/05/20 05:48:37;;;;;;;89.15;41.15;;;11.00;90.00;;;;;;5060790;28;20035;-79
2021/05/20 05:51:06;;;;;;;104.85;42.53;;;11.10;90.10;;;;;;5069530;28;20473;-80
2021/05/20 05:53:32;;;;;;;93.70;43.97;;;11.10;90.10;;;;;;5082161;28;20025;-79
2021/05/20 05:55:58;;;;;;;86.68;41.70;;;11.10;90.00;;;;;;5086545;28;20033;-79
2021/05/20 05:58:24;;;;;;;84.68;41.58;;;11.10;90.00;;;;;;5088038;28;21732;-80
2021/05/20 06:00:49;;;;;;;98.45;45.97;;;11.10;90.00;;;;;;5061529;28;20028;-80
2021/05/20 06:03:15;;;;;;;164.38;51.60;;;11.10;90.00;;;;;;5078317;28;20465;-80
2021/05/20 06:05:41;;;;;;;102.60;47.63;;;11.20;90.00;;;;;;5096445;28;20032;-79
2021/05/20 06:08:07;;;;;;;111.63;50.63;;;11.20;90.10;;;;;;5090524;28;20039;-80
2021/05/20 06:10:34;;;;;;;105.72;50.78;;;11.10;90.10;;;;;;5084960;28;20471;-80
2021/05/20 06:13:00;;;;;;;116.55;51.70;;;11.10;90.10;;;;;;5065094;28;20166;-80
2021/05/20 06:15:26;;;;;;;114.25;54.88;;;11.20;90.20;;;;;;5086298;28;20025;-80
2021/05/20 06:17:51;;;;;;;106.80;50.58;;;11.20;90.10;;;;;;5088693;28;20031;-80
2021/05/20 06:20:17;;;;;;;116.45;53.10;;;11.20;90.10;;;;;;5095726;28;20036;-79
2021/05/20 06:22:43;;;;;;;135.32;57.55;;;11.20;90.10;;;;;;5096091;28;20024;-80
2021/05/20 06:25:09;;;;;;;119.32;53.20;;;11.20;90.10;;;;;;5089751;28;20066;-79
2021/05/20 06:27:35;;;;;;;134.10;56.45;;;11.30;90.10;;;;;;5094631;28;20430;-79
2021/05/20 06:30:01;;;;;;;121.47;55.92;;;11.30;90.10;;;;;;5089893;28;20032;-79
2021/05/20 06:32:28;;;;;;;114.18;52.28;;;11.30;90.40;;;;;;5095714;28;20125;-79
2021/05/20 06:34:53;;;;;;;126.20;53.75;;;11.40;90.20;;;;;;5096052;28;20046;-79
2021/05/20 06:37:19;;;;;;;106.72;52.08;;;11.40;90.20;;;;;;5077435;28;20020;-80
2021/05/20 06:39:45;;;;;;;116.78;52.03;;;11.40;90.20;;;;;;5052363;28;20065;-80
2021/05/20 06:42:11;;;;;;;109.18;49.30;;;11.40;90.30;;;;;;5061120;28;20028;-79
2021/05/20 06:44:37;;;;;;;111.25;47.88;;;11.50;90.30;;;;;;5084081;28;20055;-79
2021/05/20 06:47:04;;;;;;;98.40;47.28;;;11.50;90.30;;;;;;5095422;28;20032;-80
2021/05/20 06:49:30;;;;;;;92.35;46.13;;;11.60;90.30;;;;;;5077504;28;20026;-79
2021/05/20 06:51:56;;;;;;;89.93;47.47;;;11.60;90.30;;;;;;5076655;28;20115;-79
2021/05/20 06:54:21;;;;;;;93.18;48.10;;;11.60;90.20;;;;;;5095464;28;20107;-79
2021/05/20 06:56:52;;;;;;;118.25;51.72;;;11.60;90.10;;;;;;5095500;28;20127;-79
2021/05/20 07:02:01;;;;;;;90.78;44.88;;;11.60;90.00;;;;;;5077535;28;20393;-79
2021/05/20 07:04:27;;;;;;;89.88;40.58;;;11.70;90.10;;;;;;5073003;28;20032;-79
2021/05/20 07:06:53;;;;;;;86.50;39.50;;;11.70;90.00;;;;;;5100904;28;20025;-80
2021/05/20 07:09:18;;;;;;;79.60;36.45;;;11.70;89.90;;;;;;5094633;28;20044;-80
2021/05/20 07:11:44;;;;;;;84.05;37.28;;;11.70;89.70;;;;;;5083112;28;20028;-80
2021/05/20 07:14:10;;;;;;;79.32;35.83;;;11.80;89.70;;;;;;5043292;28;20489;-79
2021/05/20 07:16:36;;;;;;;81.13;33.88;;;11.80;89.40;;;;;;5061940;28;20028;-80
2021/05/20 07:19:02;;;;;;;67.13;31.95;;;11.80;89.00;;;;;;5081492;28;20851;-79
2021/05/20 07:21:27;;;;;;;72.80;32.00;;;11.80;89.10;;;;;;5068135;28;20047;-79
2021/05/20 07:23:53;;;;;;;77.60;35.53;;;11.80;88.90;;;;;;5088083;28;20055;-79
2021/05/20 07:26:19;;;;;;;76.65;34.17;;;11.70;89.20;;;;;;5076574;28;20043;-79
2021/05/20 07:28:44;;;;;;;80.78;35.47;;;11.70;89.20;;;;;;5043382;28;20028;-79
2021/05/20 07:31:10;;;;;;;70.70;33.83;;;11.70;89.20;;;;;;5056482;28;20119;-79
2021/05/20 07:33:38;;;;;;;64.72;31.42;;;11.60;89.40;;;;;;5059840;28;20443;-79
2021/05/20 07:36:05;;;;;;;62.55;30.95;;;11.70;89.50;;;;;;5082466;28;20056;-80
2021/05/20 07:38:32;;;;;;;59.75;30.75;;;11.70;89.40;;;;;;5058818;28;20055;-80
2021/05/20 07:40:58;;;;;;;59.88;30.17;;;11.70;89.30;;;;;;5039890;28;20040;-80
2021/05/20 07:43:24;;;;;;;59.00;30.27;;;11.80;89.30;;;;;;5078774;28;20032;-79
2021/05/20 07:45:51;;;;;;;54.67;28.15;;;11.80;89.00;;;;;;5092197;28;20114;-79
2021/05/20 07:48:17;;;;;;;65.32;29.88;;;11.90;88.60;;;;;;5076902;28;20103;-79
2021/05/20 07:50:43;;;;;;;64.28;31.92;;;12.00;88.60;;;;;;5076674;28;20120;-79
2021/05/20 07:53:09;;;;;;;66.63;32.17;;;12.00;88.60;;;;;;5076824;28;20035;-80
2021/05/20 07:55:35;;;;;;;70.90;34.40;;;12.10;88.60;;;;;;5076610;28;20411;-80
2021/05/20 07:58:00;;;;;;;65.15;33.92;;;12.20;88.30;;;;;;5094618;28;20035;-79
2021/05/20 08:00:28;;;;;;;60.28;32.70;;;12.30;87.30;;;;;;5059740;28;20047;-80
2021/05/20 08:03:15;;;;;;;64.60;33.90;;;12.30;87.20;;;;;;5076470;28;20035;-80
2021/05/20 08:05:44;;;;;;;67.07;36.83;;;12.40;87.10;;;;;;5079155;28;20039;-80
2021/05/20 08:13:04;;;;;;;62.10;37.25;;;12.60;86.70;;;;;;5094820;28;20032;-80
2021/05/20 08:15:30;;;;;;;63.20;37.13;;;12.70;86.00;;;;;;5094627;28;20039;-79
2021/05/20 08:17:55;;;;;;;67.72;38.13;;;12.80;85.90;;;;;;5094396;28;20480;-79
2021/05/20 08:20:21;;;;;;;61.33;37.40;;;13.00;85.60;;;;;;5075445;28;20047;-79
2021/05/20 08:22:47;;;;;;;63.67;37.67;;;13.10;85.10;;;;;;5094145;28;20024;-80
2021/05/20 08:25:12;;;;;;;65.97;38.92;;;13.20;84.80;;;;;;5076151;28;20557;-79
2021/05/20 08:27:38;;;;;;;61.90;36.83;;;13.30;84.20;;;;;;5059302;28;20028;-80
2021/05/20 08:30:07;;;;;;;60.42;37.92;;;13.30;84.40;;;;;;5076101;28;20388;-80
2021/05/20 08:32:33;;;;;;;58.88;35.67;;;13.30;83.20;;;;;;5093487;28;20578;-80
2021/05/20 08:34:58;;;;;;;54.00;37.17;;;13.40;83.40;;;;;;5075996;28;20036;-80
2021/05/20 08:37:24;;;;;;;64.80;39.50;;;13.40;83.50;;;;;;5075667;28;20036;-80
2021/05/20 08:39:50;;;;;;;66.78;41.85;;;13.40;83.30;;;;;;5093622;28;20059;-80
2021/05/20 08:42:15;;;;;;;60.25;41.40;;;13.50;83.70;;;;;;5075712;28;20499;-80
2021/05/20 08:44:41;;;;;;;55.38;38.70;;;13.60;83.00;;;;;;5058851;28;20013;-79
2021/05/20 08:47:07;;;;;;;54.97;40.10;;;13.70;82.40;;;;;;5093269;28;20519;-80
2021/05/20 08:49:32;;;;;;;60.85;42.47;;;13.90;82.30;;;;;;5093121;28;20120;-80
2021/05/20 08:51:59;;;;;;;53.92;39.00;;;14.10;82.30;;;;;;5093623;28;20409;-79
2021/05/20 08:54:26;;;;;;;50.58;37.55;;;14.30;82.00;;;;;;5075607;28;20069;-80
2021/05/20 08:56:52;;;;;;;45.95;33.28;;;14.60;81.30;;;;;;5093730;28;20499;-80
2021/05/20 08:59:18;;;;;;;46.13;33.97;;;14.90;78.50;;;;;;5075616;28;20119;-80
2021/05/20 09:01:45;;;;;;;47.45;34.33;;;15.20;78.10;;;;;;5075662;28;20032;-80
2021/05/20 09:04:11;;;;;;;49.78;36.10;;;15.40;77.90;;;;;;5093821;28;20024;-80
2021/05/20 09:07:11;;;;;;;49.40;35.15;;;15.40;77.70;;;;;;5075663;28;20024;-80
2021/05/20 09:09:36;;;;;;;46.47;33.85;;;15.30;77.40;;;;;;5078133;28;20123;-80
2021/05/20 09:12:03;;;;;;;44.22;34.28;;;15.30;76.60;;;;;;5093582;28;20035;-80
2021/05/20 09:14:38;;;;;;;39.70;31.38;;;15.50;75.90;;;;;;5093385;28;20028;-80
2021/05/20 09:17:14;;;;;;;39.33;29.88;;;15.80;75.70;;;;;;5075852;28;20520;-80
2021/05/20 09:19:42;;;;;;;40.45;29.98;;;16.00;73.90;;;;;;5093418;28;20101;-80
2021/05/20 09:22:11;;;;;;;38.55;30.52;;;16.00;74.20;;;;;;5075361;28;20077;-80
2021/05/20 09:25:03;;;;;;;37.10;28.85;;;16.00;74.80;;;;;;5093350;28;20023;-80
2021/05/20 09:27:35;;;;;;;38.20;27.92;;;16.00;75.00;;;;;;5071845;28;20020;-80
2021/05/20 09:30:18;;;;;;;34.30;25.48;;;16.10;74.90;;;;;;5059320;28;20032;-80
2021/05/20 09:32:52;;;;;;;31.05;24.20;;;16.40;74.30;;;;;;5096734;28;20024;-80
2021/05/20 09:35:31;;;;;;;27.08;22.55;;;16.70;73.20;;;;;;5097433;28;20043;-80
2021/05/20 09:38:06;;;;;;;29.65;20.95;;;17.00;71.90;;;;;;5079185;28;20032;-80
2021/05/20 09:40:36;;;;;;;26.98;21.60;;;17.20;71.10;;;;;;5079228;28;20032;-80
2021/05/20 09:43:23;;;;;;;29.23;22.48;;;17.30;69.80;;;;;;5097342;28;20024;-81
2021/05/20 09:45:51;;;;;;;35.60;24.30;;;17.10;67.90;;;;;;5097306;28;20016;-80
2021/05/20 09:48:18;;;;;;;28.35;20.52;;;17.00;71.00;;;;;;5097196;28;20035;-81
2021/05/20 09:50:46;;;;;;;25.50;19.95;;;17.20;70.00;;;;;;5097264;28;20484;-81
2021/05/20 09:53:18;;;;;;;25.65;19.75;;;17.50;69.20;;;;;;5079020;28;20032;-80
2021/05/20 09:55:54;;;;;;;23.30;19.42;;;17.80;68.00;;;;;;5097161;28;20484;-80
2021/05/20 09:58:31;;;;;;;24.83;18.55;;;18.10;66.90;;;;;;5097134;28;20086;-81
2021/05/20 10:00:59;;;;;;;24.42;19.55;;;18.40;66.30;;;;;;5096927;28;20024;-80
2021/05/20 10:03:27;;;;;;;25.42;18.65;;;18.60;65.00;;;;;;5097039;28;20441;-81
2021/05/20 10:06:04;;;;;;;23.13;18.35;;;18.70;64.10;;;;;;5095713;28;20020;-80
2021/05/20 10:08:32;;;;;;;21.90;18.20;;;18.80;63.90;;;;;;5095231;28;20508;-81
2021/05/20 10:11:03;;;;;;;24.00;18.35;;;18.90;62.40;;;;;;5096871;28;20032;-80
2021/05/20 10:13:29;;;;;;;22.30;16.88;;;18.90;63.10;;;;;;5096719;28;20533;-81
2021/05/20 10:15:56;;;;;;;20.30;17.20;;;19.00;62.70;;;;;;5078528;28;20028;-81
2021/05/20 10:18:27;;;;;;;19.85;16.35;;;19.10;63.30;;;;;;5096123;28;20020;-81
2021/05/20 10:21:01;;;;;;;22.55;16.52;;;19.20;63.10;;;;;;5096031;28;20028;-80
2021/05/20 10:23:27;;;;;;;21.10;16.55;;;19.30;62.50;;;;;;5095568;28;20020;-80
2021/05/20 10:25:57;;;;;;;17.85;15.13;;;19.40;60.90;;;;;;5096133;28;20385;-80
2021/05/20 10:28:25;;;;;;;17.65;14.48;;;19.50;59.90;;;;;;5096005;28;20485;-81
2021/05/20 10:30:52;;;;;;;17.43;13.33;;;19.50;59.00;;;;;;5095927;28;20031;-81
2021/05/20 10:33:24;;;;;;;17.88;14.95;;;19.30;59.40;;;;;;5094544;28;20074;-81
2021/05/20 10:35:54;;;;;;;16.17;13.73;;;19.30;59.50;;;;;;5096320;28;20034;-81
2021/05/20 10:38:29;;;;;;;18.60;14.70;;;19.40;59.40;;;;;;5096033;28;20476;-80
2021/05/20 10:41:19;;;;;;;21.60;14.95;;;19.20;59.50;;;;;;5096181;28;20078;-81
2021/05/20 10:43:49;;;;;;;20.00;15.43;;;19.10;61.10;;;;;;5094068;28;20515;-81
2021/05/20 10:46:19;;;;;;;17.05;14.40;;;19.00;61.20;;;;;;5096093;28;20069;-81
2021/05/20 10:48:47;;;;;;;17.33;15.02;;;19.00;61.70;;;;;;5096125;28;20496;-80
2021/05/20 10:51:22;;;;;;;16.77;14.27;;;19.10;61.30;;;;;;5096126;28;20032;-81
2021/05/20 10:53:54;;;;;;;18.17;12.90;;;19.20;59.50;;;;;;5095849;28;20107;-81
2021/05/20 10:56:22;;;;;;;17.25;13.27;;;19.40;58.10;;;;;;5095926;28;20032;-81
2021/05/20 10:58:49;;;;;;;21.17;12.52;;;19.30;57.80;;;;;;5095887;28;20031;-81
2021/05/20 11:01:21;;;;;;;17.23;13.05;;;19.10;58.30;;;;;;5077789;28;20131;-81
2021/05/20 11:03:46;;;;;;;19.65;14.73;;;19.20;58.90;;;;;;5095971;28;20383;-80
2021/05/20 11:06:13;;;;;;;18.10;14.13;;;19.20;58.50;;;;;;5095722;28;20099;-81
2021/05/20 11:08:38;;;;;;;18.80;14.18;;;19.40;58.90;;;;;;5077217;28;20127;-80
2021/05/20 11:11:08;;;;;;;19.10;13.90;;;19.60;58.80;;;;;;5095651;28;20115;-83
2021/05/20 11:13:45;;;;;;;16.92;12.48;;;19.80;58.50;;;;;;5077367;28;20184;-80
2021/05/20 11:16:17;;;;;;;18.13;13.20;;;20.00;57.20;;;;;;5096050;28;20043;-81
2021/05/20 11:18:44;;;;;;;16.63;13.10;;;20.00;56.60;;;;;;5077386;28;20028;-80
2021/05/20 11:21:09;;;;;;;16.90;13.88;;;20.00;57.50;;;;;;5094134;28;20024;-80
2021/05/20 11:23:37;;;;;;;17.92;14.10;;;20.10;57.50;;;;;;5077325;28;20028;-80
2021/05/20 11:26:04;;;;;;;13.93;12.18;;;20.10;55.60;;;;;;5094928;28;20373;-80
2021/05/20 11:28:38;;;;;;;15.93;13.98;;;20.20;56.70;;;;;;5095011;28;20012;-81
2021/05/20 11:31:04;;;;;;;19.63;14.20;;;20.20;55.20;;;;;;5095258;28;20047;-81
2021/05/20 11:33:35;;;;;;;14.48;12.35;;;20.20;55.80;;;;;;5095223;28;20472;-80
2021/05/20 11:38:27;;;;;;;15.30;12.60;;;20.30;55.70;;;;;;5077543;28;20443;-80
2021/05/20 11:40:53;;;;;;;15.25;12.38;;;20.50;55.30;;;;;;5076972;28;20067;-80
2021/05/20 11:43:27;;;;;;;19.75;11.90;;;20.60;55.10;;;;;;5076841;28;20020;-80
2021/05/20 11:45:52;;;;;;;18.08;11.48;;;20.70;53.90;;;;;;5077189;28;20028;-80
2021/05/20 11:48:18;;;;;;;14.07;10.48;;;20.60;54.50;;;;;;5094971;28;20020;-80
2021/05/20 11:50:53;;;;;;;17.23;11.95;;;20.50;55.20;;;;;;5077058;28;20034;-81
2021/05/20 11:53:20;;;;;;;16.75;12.50;;;20.40;54.50;;;;;;5095099;28;20024;-80
2021/05/20 11:55:46;;;;;;;13.77;10.55;;;20.20;55.00;;;;;;5094715;28;20034;-80
2021/05/20 11:58:13;;;;;;;12.15;9.70;;;20.10;55.50;;;;;;5076518;28;20032;-81
2021/05/20 12:00:39;;;;;;;12.88;8.80;;;19.90;55.30;;;;;;5076733;28;20050;-81
2021/05/20 12:03:07;;;;;;;11.55;9.18;;;19.80;56.50;;;;;;5094717;28;20024;-80
2021/05/20 12:05:35;;;;;;;10.55;8.32;;;19.80;56.60;;;;;;5059754;28;20361;-81
2021/05/20 12:08:01;;;;;;;12.32;8.75;;;19.70;57.10;;;;;;5094191;28;20491;-81
2021/05/20 12:10:28;;;;;;;11.45;8.27;;;19.50;55.60;;;;;;5094228;28;20048;-80
2021/05/20 12:12:56;;;;;;;14.55;8.93;;;19.40;56.30;;;;;;5094387;28;20024;-80
2021/05/20 12:15:25;;;;;;;10.00;7.57;;;19.40;57.40;;;;;;5094346;28;20066;-81
2021/05/20 12:17:54;;;;;;;;;;;19.50;57.30;;;;;;5076754;28;20024;-81
2021/05/20 12:20:20;;;;;;;9.13;6.57;;;19.50;57.20;;;;;;5076501;28;19923;-80
2021/05/20 12:22:45;;;;;;;7.38;6.18;;;19.50;57.50;;;;;;5076129;28;20032;-80
2021/05/20 12:25:13;;;;;;;7.97;6.80;;;19.60;57.20;;;;;;5094331;28;20024;-81
2021/05/20 12:27:39;;;;;;;7.63;6.25;;;19.70;56.50;;;;;;5094261;28;20028;-81
2021/05/20 12:30:07;;;;;;;6.90;5.07;;;19.80;56.20;;;;;;5094164;28;20024;-80
2021/05/20 12:32:38;;;;;;;8.73;5.68;;;20.10;55.90;;;;;;5094122;28;20020;-81
2021/05/20 12:35:17;;;;;;;9.32;5.40;;;20.30;54.90;;;;;;5094114;28;20028;-80
2021/05/20 12:38:09;;;;;;;12.23;5.50;;;20.40;53.70;;;;;;5094130;28;20023;-81
2021/05/20 12:40:50;;;;;;;6.68;5.30;;;20.50;53.50;;;;;;5093863;28;20050;-81